Time;durP1;ratioP1;P1;durP2;ratioP2;P2;SDS_P1;SDS_P2;PMS_P1;PMS_P2;Temp;Humidity;BMP_temperature;BMP_pressure;BME280_temperature;BME280_humidity;BME280_pressure;Samples;Min_cycle;Max_cycle;Signal;HPM_P1;HPM_P2
2021/12/28 00:01:44;;;;;;;38.90;12.80;;;;;;;-9.96;76.58;99732.80;102430;1310;72943;-67
2021/12/28 00:04:40;;;;;;;41.50;14.50;;;;;;;-9.96;76.22;99729.55;102437;1309;59815;-67
2021/12/28 00:07:29;;;;;;;36.40;12.50;;;;;;;-9.95;76.25;99715.46;102434;1309;59711;-68
2021/12/28 00:10:21;;;;;;;37.70;11.80;;;;;;;-9.95;76.31;99715.80;101736;1311;1003206;-68
2021/12/28 00:13:10;;;;;;;39.60;13.10;;;;;;;-9.93;76.34;99717.02;101979;1311;1003864;-68
2021/12/28 00:18:58;;;;;;;33.70;11.70;;;;;;;-9.90;75.78;99711.69;102323;1316;59686;-69
2021/12/28 00:21:50;;;;;;;27.80;9.60;;;;;;;-9.87;76.39;99703.44;102424;1317;59729;-68
2021/12/28 00:24:47;;;;;;;30.30;10.50;;;;;;;-9.86;76.25;99699.84;102421;1311;71797;-70
2021/12/28 00:27:38;;;;;;;31.90;11.70;;;;;;;-9.83;76.07;99693.31;102500;1314;66868;-70
2021/12/28 00:30:31;;;;;;;33.80;11.60;;;;;;;-9.80;75.91;99695.20;102250;1314;71623;-70
2021/12/28 00:33:26;;;;;;;31.90;9.80;;;;;;;-9.79;75.75;99685.41;102601;1311;60238;-70
2021/12/28 00:36:16;;;;;;;32.00;11.30;;;;;;;-9.77;75.84;99689.36;102528;1310;59656;-70
2021/12/28 00:39:14;;;;;;;32.10;10.30;;;;;;;-9.77;75.70;99686.45;101844;1310;1015169;-67
2021/12/28 00:42:04;;;;;;;32.20;10.70;;;;;;;-9.78;75.47;99692.96;102491;1311;65721;-68
2021/12/28 00:44:52;;;;;;;31.00;10.20;;;;;;;-9.77;75.13;99690.04;101784;1311;1003012;-67
2021/12/28 00:47:41;;;;;;;30.60;9.50;;;;;;;-9.76;75.14;99697.08;102522;1311;59678;-67
2021/12/28 00:50:36;;;;;;;27.50;8.90;;;;;;;-9.75;74.90;99698.45;103058;1310;59684;-67
2021/12/28 00:53:30;;;;;;;32.90;10.90;;;;;;;-9.75;74.96;99700.35;102927;1311;70407;-67
2021/12/28 00:56:21;;;;;;;28.90;9.80;;;;;;;-9.74;74.33;99699.67;102667;1314;67025;-67
2021/12/28 00:59:16;;;;;;;22.90;7.10;;;;;;;-9.74;74.39;99701.38;102138;1311;1002992;-67
2021/12/28 01:02:12;;;;;;;30.00;10.00;;;;;;;-9.75;74.57;99703.61;101825;1310;1003334;-67
2021/12/28 01:05:06;;;;;;;30.40;9.90;;;;;;;-9.75;74.35;99701.03;102481;1311;59663;-68
2021/12/28 01:08:06;;;;;;;36.20;11.80;;;;;;;-9.78;74.26;99701.04;102484;1310;71854;-67
2021/12/28 01:10:58;;;;;;;30.10;9.90;;;;;;;-9.80;74.22;99706.52;101784;1317;1003499;-67
2021/12/28 01:13:51;;;;;;;25.20;9.70;;;;;;;-9.80;73.70;99702.74;102366;1314;71865;-67
2021/12/28 01:16:40;;;;;;;29.50;10.20;;;;;;;-9.83;74.05;99705.16;102617;1317;59631;-67
2021/12/28 01:19:29;;;;;;;32.10;11.60;;;;;;;-9.85;74.06;99706.18;102306;1314;59701;-67
2021/12/28 01:22:21;;;;;;;33.40;8.90;;;;;;;-9.92;74.22;99697.96;101686;1310;1002947;-67
2021/12/28 01:25:15;;;;;;;31.40;11.00;;;;;;;-9.95;74.15;99686.61;101774;1310;1004147;-67
2021/12/28 01:28:07;;;;;;;31.60;10.80;;;;;;;-9.97;74.28;99681.30;102461;1311;70613;-67
2021/12/28 01:30:55;;;;;;;34.40;10.60;;;;;;;-10.00;74.22;99680.98;102539;1311;59818;-67
2021/12/28 01:33:50;;;;;;;36.80;12.70;;;;;;;-10.02;73.98;99675.48;102318;1310;59696;-67
2021/12/28 01:36:48;;;;;;;33.20;9.20;;;;;;;-10.05;74.42;99666.20;102643;1317;72388;-67
2021/12/28 01:39:39;;;;;;;34.20;11.60;;;;;;;-10.07;74.28;99665.69;102323;1316;65289;-67
2021/12/28 01:42:29;;;;;;;31.80;10.20;;;;;;;-10.10;74.43;99654.20;102559;1316;71607;-67
2021/12/28 01:45:18;;;;;;;25.80;9.40;;;;;;;-10.12;74.36;99647.85;102622;1310;59778;-67
2021/12/28 01:48:10;;;;;;;31.90;10.70;;;;;;;-10.15;74.62;99651.95;102515;1311;60132;-67
2021/12/28 01:51:12;;;;;;;30.50;10.80;;;;;;;-10.17;75.15;99644.41;102702;1310;72089;-68
2021/12/28 01:54:03;;;;;;;35.40;11.30;;;;;;;-10.20;74.97;99638.23;102642;1310;68074;-67
2021/12/28 01:56:53;;;;;;;36.90;12.30;;;;;;;-10.23;75.06;99628.97;102690;1311;70082;-67
2021/12/28 01:59:45;;;;;;;26.00;9.30;;;;;;;-10.25;75.35;99626.23;102189;1316;59909;-67
2021/12/28 02:02:37;;;;;;;28.40;10.50;;;;;;;-10.29;75.65;99625.88;102439;1310;60135;-67
2021/12/28 02:05:29;;;;;;;28.00;8.90;;;;;;;-10.32;75.43;99621.58;101675;1314;1003155;-67
2021/12/28 02:08:23;;;;;;;25.90;8.00;;;;;;;-10.36;75.21;99616.83;102547;1310;68493;-67
2021/12/28 02:11:15;;;;;;;35.00;13.10;;;;;;;-10.40;75.08;99617.84;102610;1310;73160;-66
2021/12/28 02:14:07;;;;;;;34.20;12.10;;;;;;;-10.42;75.38;99604.48;102363;1314;59828;-67
2021/12/28 02:16:55;;;;;;;27.20;8.40;;;;;;;-10.45;74.70;99609.80;102401;1313;59606;-67
2021/12/28 02:19:45;;;;;;;35.10;12.40;;;;;;;-10.47;75.40;99609.27;102364;1313;71803;-67
2021/12/28 02:22:34;;;;;;;30.70;10.20;;;;;;;-10.47;75.06;99598.12;102081;1316;66947;-67
2021/12/28 02:25:22;;;;;;;35.80;12.50;;;;;;;-10.48;75.50;99588.52;102604;1314;71418;-67
2021/12/28 02:28:15;;;;;;;31.80;10.50;;;;;;;-10.50;75.28;99584.91;102675;1310;59812;-67
2021/12/28 02:31:07;;;;;;;28.50;8.50;;;;;;;-10.51;75.61;99577.02;103066;1317;59583;-67
2021/12/28 02:33:56;;;;;;;30.00;10.10;;;;;;;-10.51;75.34;99581.99;102855;1310;71570;-67
2021/12/28 02:36:51;;;;;;;29.90;10.50;;;;;;;-10.51;75.04;99582.67;102470;1317;66868;-67
2021/12/28 02:39:43;;;;;;;27.30;9.00;;;;;;;-10.53;75.51;99576.85;102348;1317;71599;-68
2021/12/28 02:42:32;;;;;;;29.30;10.70;;;;;;;-10.54;75.32;99579.42;102396;1316;59684;-68
2021/12/28 02:45:29;;;;;;;34.70;10.50;;;;;;;-10.56;75.72;99572.73;102666;1311;59787;-67
2021/12/28 02:48:22;;;;;;;28.90;10.00;;;;;;;-10.58;75.45;99572.90;102313;1313;73317;-66
2021/12/28 02:51:16;;;;;;;24.00;8.20;;;;;;;-10.58;75.73;99568.45;101664;1310;1002503;-67
2021/12/28 02:54:05;;;;;;;38.80;11.40;;;;;;;-10.60;75.73;99566.90;102233;1312;71323;-68
2021/12/28 02:56:54;;;;;;;32.20;10.80;;;;;;;-10.65;75.68;99565.88;101734;1311;1003709;-68
2021/12/28 02:59:49;;;;;;;26.10;7.10;;;;;;;-10.64;75.61;99570.84;101802;1310;1014707;-68
2021/12/28 03:02:41;;;;;;;31.90;11.80;;;;;;;-10.66;75.79;99571.02;102510;1310;71882;-68
2021/12/28 03:05:38;;;;;;;32.70;10.00;;;;;;;-10.68;75.59;99569.64;102398;1313;68282;-68
2021/12/28 03:08:32;;;;;;;29.50;9.00;;;;;;;-10.69;75.61;99567.07;102793;1311;73401;-68
2021/12/28 03:11:25;;;;;;;31.60;10.40;;;;;;;-10.71;76.09;99551.11;102619;1310;59784;-68
2021/12/28 03:14:14;;;;;;;34.90;11.70;;;;;;;-10.71;76.54;99545.13;102468;1310;60673;-68
2021/12/28 03:17:10;;;;;;;29.90;11.20;;;;;;;-10.71;76.27;99545.98;101831;1316;1003443;-68
2021/12/28 03:19:59;;;;;;;32.60;10.30;;;;;;;-10.72;76.20;99539.13;102212;1314;68405;-68
2021/12/28 03:22:49;;;;;;;28.40;9.90;;;;;;;-10.73;76.29;99532.94;102212;1310;73134;-68
2021/12/28 03:25:51;;;;;;;24.80;8.10;;;;;;;-10.73;76.64;99529.87;102190;1310;60035;-68
2021/12/28 03:28:52;;;;;;;31.20;10.00;;;;;;;-10.75;76.30;99530.89;102668;1317;59628;-69
2021/12/28 03:31:44;;;;;;;28.30;9.90;;;;;;;-10.77;76.71;99541.69;102538;1311;72650;-68
2021/12/28 03:34:36;;;;;;;32.30;9.60;;;;;;;-10.79;76.48;99522.16;102398;1311;66327;-68
2021/12/28 03:37:25;;;;;;;25.40;8.80;;;;;;;-10.79;76.47;99536.56;102713;1310;71620;-68
2021/12/28 03:40:18;;;;;;;27.10;8.40;;;;;;;-10.80;76.45;99522.32;102384;1316;60058;-68
2021/12/28 03:43:10;;;;;;;29.70;8.70;;;;;;;-10.81;76.25;99525.40;102344;1316;59684;-69
2021/12/28 03:45:59;;;;;;;15.30;5.30;;;;;;;-10.81;76.90;99529.86;102792;1310;72114;-68
2021/12/28 03:48:55;;;;;;;28.00;9.10;;;;;;;-10.79;76.83;99524.55;102586;1317;68589;-67
2021/12/28 03:51:45;;;;;;;26.80;9.00;;;;;;;-10.70;77.40;99521.64;102742;1310;73195;-67
2021/12/28 03:54:34;;;;;;;35.90;12.20;;;;;;;-10.64;77.62;99515.30;102682;1314;59799;-67
2021/12/28 03:57:35;;;;;;;27.40;8.50;;;;;;;-10.64;76.82;99516.49;101795;1311;1002858;-67
2021/12/28 04:00:26;;;;;;;23.60;7.50;;;;;;;-10.65;77.17;99517.52;102616;1317;73334;-67
2021/12/28 04:03:19;;;;;;;24.10;7.90;;;;;;;-10.66;76.71;99515.30;103007;1314;68129;-67
2021/12/28 04:06:11;;;;;;;29.10;10.80;;;;;;;-10.69;77.31;99514.60;102525;1314;73145;-68
2021/12/28 04:09:07;;;;;;;25.00;8.70;;;;;;;-10.71;76.89;99515.98;102549;1311;60138;-67
2021/12/28 04:11:59;;;;;;;26.70;9.10;;;;;;;-10.73;77.48;99506.55;102102;1314;1003910;-67
2021/12/28 04:14:51;;;;;;;30.40;9.70;;;;;;;-10.75;77.27;99504.33;102516;1310;73559;-68
2021/12/28 04:17:41;;;;;;;34.70;10.90;;;;;;;-10.74;77.63;99505.70;102468;1310;68955;-67
2021/12/28 04:20:33;;;;;;;26.30;7.60;;;;;;;-10.72;78.37;99507.23;102320;1310;72145;-67
2021/12/28 04:23:26;;;;;;;22.00;8.00;;;;;;;-10.67;78.96;99507.73;102492;1311;59769;-67
2021/12/28 04:26:16;;;;;;;29.00;9.30;;;;;;;-10.60;80.04;99503.30;102643;1316;60748;-67
2021/12/28 04:29:09;;;;;;;32.30;10.40;;;;;;;-10.52;81.17;99513.91;102458;1314;72006;-67
2021/12/28 04:31:58;;;;;;;24.10;9.10;;;;;;;-10.43;80.70;99504.45;102278;1310;68165;-67
2021/12/28 04:34:47;;;;;;;27.50;9.90;;;;;;;-10.33;81.08;99500.14;102500;1310;73164;-67
2021/12/28 04:37:38;;;;;;;31.60;11.00;;;;;;;-10.25;80.73;99491.87;102473;1317;59829;-67
2021/12/28 04:40:27;;;;;;;36.40;13.90;;;;;;;-10.16;81.50;99493.91;102317;1316;59762;-67
2021/12/28 04:43:17;;;;;;;25.00;9.30;;;;;;;-10.06;81.65;99492.52;102401;1310;72457;-67
2021/12/28 04:46:07;;;;;;;28.80;9.50;;;;;;;-9.98;81.75;99489.73;102630;1310;68162;-67
2021/12/28 04:48:59;;;;;;;27.70;10.90;;;;;;;-9.93;81.43;99489.56;102593;1313;72946;-67
2021/12/28 04:51:52;;;;;;;30.30;11.10;;;;;;;-9.87;80.90;99489.70;102243;1310;59679;-66
2021/12/28 04:54:41;;;;;;;30.80;10.70;;;;;;;-9.83;80.09;99493.98;101706;1316;1003183;-67
2021/12/28 04:57:30;;;;;;;30.50;11.50;;;;;;;-9.79;80.02;99486.76;101938;1314;1003477;-67
2021/12/28 05:00:23;;;;;;;25.90;8.90;;;;;;;-9.77;79.50;99478.33;102493;1311;68327;-68
2021/12/28 05:03:14;;;;;;;20.30;7.20;;;;;;;-9.75;79.62;99468.53;102452;1316;72050;-67
2021/12/28 05:06:04;;;;;;;28.10;9.60;;;;;;;-9.74;80.58;99467.32;102372;1313;59818;-67
2021/12/28 05:08:53;;;;;;;30.90;11.40;;;;;;;-9.73;81.06;99470.91;102434;1311;60678;-67
2021/12/28 05:11:41;;;;;;;20.40;6.40;;;;;;;-9.71;81.20;99463.52;101785;1311;1014679;-66
2021/12/28 05:14:30;;;;;;;30.40;10.00;;;;;;;-9.67;81.09;99467.11;101947;1311;1002553;-66
2021/12/28 05:17:19;;;;;;;34.70;11.40;;;;;;;-9.68;81.19;99457.51;102882;1316;72029;-67
2021/12/28 05:20:11;;;;;;;32.60;11.30;;;;;;;-9.68;80.86;99448.39;105060;1311;59808;-67
2021/12/28 05:23:06;;;;;;;33.80;10.70;;;;;;;-9.67;81.05;99437.58;101859;1310;1003042;-68
2021/12/28 05:25:55;;;;;;;33.10;10.70;;;;;;;-9.66;81.30;99431.38;102129;1316;1003869;-67
2021/12/28 05:28:49;;;;;;;25.70;9.90;;;;;;;-9.71;81.85;99431.93;102606;1316;68841;-66
2021/12/28 05:31:40;;;;;;;27.50;8.90;;;;;;;-9.72;81.89;99430.21;102838;1316;70092;-67
2021/12/28 05:34:32;;;;;;;33.70;12.50;;;;;;;-9.72;81.91;99430.05;102890;1312;59726;-68
2021/12/28 05:37:22;;;;;;;31.10;9.70;;;;;;;-9.73;81.94;99440.36;102390;1316;59621;-68
2021/12/28 05:40:15;;;;;;;31.60;9.80;;;;;;;-9.72;81.93;99437.09;102498;1310;72184;-68
2021/12/28 05:43:05;;;;;;;28.00;10.50;;;;;;;-9.75;81.70;99437.44;102792;1310;68046;-68
2021/12/28 05:45:57;;;;;;;31.30;10.90;;;;;;;-9.77;81.97;99426.30;102471;1316;72164;-68
2021/12/28 05:48:50;;;;;;;32.20;11.30;;;;;;;-9.77;82.21;99423.20;102372;1314;59851;-69
2021/12/28 05:51:39;;;;;;;29.80;10.00;;;;;;;-9.79;82.57;99420.81;102992;1311;59435;-69
2021/12/28 05:54:33;;;;;;;34.50;10.80;;;;;;;-9.80;82.87;99420.81;102653;1317;70722;-69
2021/12/28 05:57:30;;;;;;;32.20;11.60;;;;;;;-9.80;82.84;99425.27;102577;1311;66006;-69
2021/12/28 06:00:29;;;;;;;28.40;10.70;;;;;;;-9.82;83.37;99419.79;100830;1317;5256958;-68
2021/12/28 06:03:45;;;;;;;30.40;10.80;;;;;;;-9.82;83.58;99410.52;102543;1311;71415;-68
2021/12/28 06:06:38;;;;;;;27.10;10.00;;;;;;;-9.80;84.30;99403.48;102843;1310;60036;-68
2021/12/28 06:09:28;;;;;;;27.00;10.40;;;;;;;-9.80;84.31;99400.89;102302;1313;59577;-68
2021/12/28 06:12:23;;;;;;;32.90;12.00;;;;;;;-9.80;84.56;99393.34;102332;1311;72282;-68
2021/12/28 06:15:23;;;;;;;32.10;10.50;;;;;;;-9.78;84.88;99398.65;102841;1317;66385;-68
2021/12/28 06:18:29;;;;;;;32.80;12.70;;;;;;;-9.78;84.98;99396.77;102639;1317;72006;-68
2021/12/28 06:21:36;;;;;;;28.50;11.00;;;;;;;-9.78;85.38;99400.71;102704;1316;59796;-68
2021/12/28 06:24:33;;;;;;;24.30;8.90;;;;;;;-9.77;85.96;99402.43;102937;1317;60584;-68
2021/12/28 06:27:22;;;;;;;34.00;11.10;;;;;;;-9.75;86.27;99398.45;102210;1316;1003001;-68
2021/12/28 06:30:17;;;;;;;27.60;10.30;;;;;;;-9.74;85.95;99402.58;102514;1314;68491;-68
2021/12/28 06:33:13;;;;;;;31.20;8.50;;;;;;;-9.75;85.52;99405.85;102612;1312;71194;-68
2021/12/28 06:36:05;;;;;;;34.50;10.90;;;;;;;-9.75;86.13;99410.33;101783;1312;1003184;-68
2021/12/28 06:38:55;;;;;;;28.20;10.80;;;;;;;-9.74;86.06;99402.75;102453;1316;59691;-68
2021/12/28 06:41:44;;;;;;;30.60;10.90;;;;;;;-9.78;86.70;99395.05;101529;1317;1003179;-68
2021/12/28 06:44:34;;;;;;;38.90;13.50;;;;;;;-9.77;87.07;99399.67;102478;1316;66222;-68
2021/12/28 06:47:30;;;;;;;33.90;11.80;;;;;;;-9.73;86.77;99401.39;101770;1317;1003057;-68
2021/12/28 06:50:34;;;;;;;31.10;12.30;;;;;;;-9.75;86.73;99402.06;102967;1317;59732;-69
2021/12/28 06:53:23;;;;;;;24.50;8.40;;;;;;;-9.77;87.32;99390.40;102643;1316;60706;-70
2021/12/28 06:56:29;;;;;;;24.30;7.60;;;;;;;-9.77;87.93;99385.25;102562;1311;72712;-70
2021/12/28 06:59:22;;;;;;;23.60;9.60;;;;;;;-9.73;88.52;99380.95;102581;1317;67195;-71
2021/12/28 07:02:22;;;;;;;30.90;9.70;;;;;;;-9.72;88.01;99379.73;102466;1317;71845;-71
2021/12/28 07:05:14;;;;;;;31.80;11.00;;;;;;;-9.71;88.22;99370.98;102607;1312;59782;-70
2021/12/28 07:08:07;;;;;;;31.50;11.60;;;;;;;-9.71;88.14;99364.09;101872;1311;1003074;-71
2021/12/28 07:10:57;;;;;;;33.90;12.30;;;;;;;-9.73;88.40;99355.86;102697;1317;72240;-69
2021/12/28 07:13:57;;;;;;;31.70;11.20;;;;;;;-9.72;87.92;99352.42;102506;1316;68412;-69
2021/12/28 07:17:04;;;;;;;29.60;9.80;;;;;;;-9.69;88.12;99352.06;102721;1314;73306;-71
2021/12/28 07:19:57;;;;;;;33.00;13.00;;;;;;;-9.70;87.84;99350.02;102340;1311;59787;-69
2021/12/28 07:22:48;;;;;;;28.30;10.00;;;;;;;-9.69;87.90;99351.71;102272;1310;59679;-69
2021/12/28 07:25:37;;;;;;;29.80;11.70;;;;;;;-9.66;87.60;99337.61;102235;1317;70968;-68
2021/12/28 07:28:26;;;;;;;32.60;13.30;;;;;;;-9.63;87.84;99340.34;102311;1316;68466;-68
2021/12/28 07:31:14;;;;;;;35.80;13.10;;;;;;;-9.62;87.72;99339.48;102511;1317;73057;-68
2021/12/28 07:34:03;;;;;;;28.60;11.60;;;;;;;-9.62;88.32;99341.71;101538;1314;1003172;-67
2021/12/28 07:36:54;;;;;;;40.20;14.60;;;;;;;-9.60;88.74;99342.55;102573;1310;59603;-70
2021/12/28 07:40:00;;;;;;;35.80;11.90;;;;;;;-9.58;88.52;99339.44;102659;1317;73670;-69
2021/12/28 07:42:47;;;;;;;32.50;12.60;;;;;;;-9.57;88.93;99337.39;102549;1317;65268;-70
2021/12/28 07:45:35;;;;;;;34.10;13.70;;;;;;;-9.54;88.62;99328.42;102744;1316;71425;-70
2021/12/28 07:48:23;;;;;;;36.90;15.40;;;;;;;-9.52;88.81;99337.53;102693;1311;59732;-70
2021/12/28 07:51:10;;;;;;;33.90;13.60;;;;;;;-9.51;88.71;99328.75;102586;1317;60618;-70
2021/12/28 07:53:58;;;;;;;29.80;12.10;;;;;;;-9.51;88.76;99334.58;102354;1311;73322;-70
2021/12/28 07:56:46;;;;;;;34.30;13.30;;;;;;;-9.47;88.77;99331.80;102572;1314;65374;-71
2021/12/28 07:59:37;;;;;;;39.50;16.20;;;;;;;-9.42;88.73;99328.34;102380;1310;72287;-70
2021/12/28 08:02:24;;;;;;;27.00;10.30;;;;;;;-9.42;88.50;99327.13;102295;1317;59777;-70
2021/12/28 08:05:15;;;;;;;25.40;8.80;;;;;;;-9.38;88.75;99324.17;102682;1317;59564;-70
2021/12/28 08:08:03;;;;;;;32.40;12.10;;;;;;;-9.33;88.59;99325.51;102545;1314;72023;-70
2021/12/28 08:10:50;;;;;;;39.30;15.30;;;;;;;-9.33;88.36;99327.05;102152;1311;1002684;-71
2021/12/28 08:13:38;;;;;;;26.40;11.00;;;;;;;-9.30;88.56;99328.91;102583;1307;71958;-71
2021/12/28 08:16:25;;;;;;;38.80;15.20;;;;;;;-9.30;88.78;99326.51;102540;1314;59784;-71
2021/12/28 08:19:15;;;;;;;38.90;13.70;;;;;;;-9.30;89.05;99330.29;102274;1310;1003914;-70
2021/12/28 08:22:05;;;;;;;39.30;14.70;;;;;;;-9.26;88.96;99320.98;102551;1314;72026;-69
2021/12/28 08:24:52;;;;;;;40.20;14.00;;;;;;;-9.24;89.20;99320.27;102429;1317;68427;-70
2021/12/28 08:27:40;;;;;;;38.30;15.00;;;;;;;-9.19;89.07;99321.25;102618;1317;72227;-69
2021/12/28 08:30:28;;;;;;;42.00;15.20;;;;;;;-9.15;88.99;99306.77;102256;1314;59651;-69
2021/12/28 08:33:15;;;;;;;38.70;16.00;;;;;;;-9.10;89.27;99308.79;102494;1311;59727;-69
2021/12/28 08:36:03;;;;;;;39.40;12.80;;;;;;;-9.09;89.31;99301.55;102467;1312;71225;-69
2021/12/28 08:38:50;;;;;;;44.10;17.20;;;;;;;-9.05;89.24;99293.80;101933;1316;1003125;-70
2021/12/28 08:41:38;;;;;;;38.20;14.50;;;;;;;-9.01;89.52;99286.52;102709;1314;71659;-69
2021/12/28 08:44:28;;;;;;;37.00;13.70;;;;;;;-8.97;89.92;99296.45;102581;1314;59752;-69
2021/12/28 08:47:16;;;;;;;44.50;17.30;;;;;;;-8.95;89.99;99283.37;101628;1314;1003464;-71
2021/12/28 08:50:07;;;;;;;36.10;13.20;;;;;;;-8.88;90.32;99287.77;101870;1317;1003850;-69
2021/12/28 08:52:54;;;;;;;35.00;13.60;;;;;;;-8.83;90.28;99296.14;101734;1313;1003629;-69
2021/12/28 08:55:42;;;;;;;41.60;16.80;;;;;;;-8.79;90.30;99288.69;102574;1316;71569;-70
2021/12/28 08:58:30;;;;;;;43.40;14.90;;;;;;;-8.70;90.33;99285.50;102666;1311;59602;-70
2021/12/28 09:01:17;;;;;;;45.90;15.10;;;;;;;-8.64;90.64;99280.44;101544;1316;1003602;-69
2021/12/28 09:04:05;;;;;;;38.80;15.50;;;;;;;-8.53;90.71;99269.46;101729;1311;1003649;-69
2021/12/28 09:06:52;;;;;;;38.40;14.40;;;;;;;-8.44;90.61;99261.24;102840;1314;65276;-68
2021/12/28 09:09:40;;;;;;;32.10;12.80;;;;;;;-8.36;90.46;99260.08;103028;1310;72998;-69
2021/12/28 09:12:27;;;;;;;37.60;15.50;;;;;;;-8.31;90.90;99261.23;103521;1311;59687;-70
2021/12/28 09:15:16;;;;;;;35.30;15.50;;;;;;;-8.23;91.20;99248.55;103267;1316;59499;-70
2021/12/28 09:18:03;;;;;;;38.00;14.60;;;;;;;-8.17;91.17;99244.49;102339;1316;73500;-72
2021/12/28 09:20:51;;;;;;;36.90;17.20;;;;;;;-8.09;91.33;99250.06;102344;1311;68024;-69
2021/12/28 09:23:39;;;;;;;45.60;16.00;;;;;;;-8.06;91.76;99245.70;102429;1310;73665;-70
2021/12/28 09:26:46;;;;;;;38.90;14.30;;;;;;;-7.98;91.83;99240.09;102568;1311;59711;-71
2021/12/28 09:29:34;;;;;;;41.00;15.90;;;;;;;-7.95;91.90;99241.59;102607;1311;60412;-70
2021/12/28 09:32:21;;;;;;;36.20;15.20;;;;;;;-7.93;92.13;99233.48;102343;1313;73299;-70
2021/12/28 09:35:10;;;;;;;40.00;16.00;;;;;;;-7.87;92.07;99227.33;102268;1316;67861;-69
2021/12/28 09:37:58;;;;;;;40.60;15.30;;;;;;;-7.79;91.81;99225.31;102409;1311;71660;-69
2021/12/28 09:40:50;;;;;;;40.90;16.30;;;;;;;-7.75;92.02;99220.95;102544;1310;59736;-71
2021/12/28 09:43:39;;;;;;;39.20;14.50;;;;;;;-7.73;92.17;99218.84;102832;1310;59692;-71
2021/12/28 09:46:27;;;;;;;36.20;13.40;;;;;;;-7.67;91.87;99216.15;102663;1311;72080;-70
2021/12/28 09:49:15;;;;;;;35.00;16.70;;;;;;;-7.63;91.94;99209.21;102769;1310;67019;-70
2021/12/28 09:52:06;;;;;;;40.90;16.40;;;;;;;-7.62;92.42;99208.49;102591;1311;73221;-71
2021/12/28 09:54:55;;;;;;;42.10;16.80;;;;;;;-7.63;92.70;99212.82;102597;1314;59615;-70
2021/12/28 09:57:45;;;;;;;39.20;14.80;;;;;;;-7.61;92.56;99212.27;102599;1313;60067;-70
2021/12/28 10:00:33;;;;;;;38.30;14.10;;;;;;;-7.57;92.68;99207.20;102788;1311;71853;-71
2021/12/28 10:03:34;;;;;;;42.60;18.10;;;;;;;-7.52;91.88;99202.47;102527;1310;65907;-70
2021/12/28 10:06:28;;;;;;;42.80;19.80;;;;;;;-7.48;91.75;99193.27;102505;1317;71802;-70
2021/12/28 10:09:21;;;;;;;43.80;19.40;;;;;;;-7.48;91.80;99195.84;102617;1317;59738;-71
2021/12/28 10:12:11;;;;;;;44.90;15.20;;;;;;;-7.42;91.67;99190.20;102399;1314;59925;-70
2021/12/28 10:15:03;;;;;;;35.40;15.10;;;;;;;-7.38;91.51;99189.45;102647;1310;73430;-71
2021/12/28 10:17:59;;;;;;;42.10;18.40;;;;;;;-7.31;91.15;99191.39;102167;1312;1002926;-71
2021/12/28 10:20:53;;;;;;;41.20;16.80;;;;;;;-7.22;90.81;99191.91;102824;1314;72992;-70
2021/12/28 10:23:45;;;;;;;47.20;18.80;;;;;;;-7.13;89.63;99192.60;102484;1311;60097;-69
2021/12/28 10:26:32;;;;;;;49.60;20.10;;;;;;;-7.08;88.85;99191.13;102751;1316;60564;-70
2021/12/28 10:29:30;;;;;;;49.20;21.30;;;;;;;-6.98;88.69;99180.40;102585;1311;73409;-70
2021/12/28 10:32:28;;;;;;;44.00;19.30;;;;;;;-6.89;88.03;99168.30;102680;1315;68208;-69
2021/12/28 10:35:22;;;;;;;43.00;17.90;;;;;;;-6.82;87.07;99163.17;102656;1311;70389;-70
2021/12/28 10:38:19;;;;;;;42.30;19.80;;;;;;;-6.80;86.29;99164.69;102390;1314;59712;-70
2021/12/28 10:41:15;;;;;;;44.80;19.60;;;;;;;-6.86;86.21;99178.60;102846;1311;60865;-70
2021/12/28 10:44:02;;;;;;;49.50;19.60;;;;;;;-6.86;86.09;99168.95;102699;1314;73583;-71
2021/12/28 10:46:50;;;;;;;42.00;15.60;;;;;;;-6.79;86.38;99169.30;102362;1313;69069;-70
2021/12/28 10:49:39;;;;;;;50.20;21.20;;;;;;;-6.75;85.85;99169.08;101838;1310;1003223;-69
2021/12/28 10:52:33;;;;;;;46.30;20.60;;;;;;;-6.76;85.69;99158.03;102687;1314;59596;-70
2021/12/28 10:55:24;;;;;;;35.20;15.00;;;;;;;-6.71;85.73;99144.48;102521;1310;59680;-70
2021/12/28 10:58:39;;;;;;;51.40;20.50;;;;;;;-6.64;85.01;99147.78;102416;1311;72215;-70
2021/12/28 11:01:35;;;;;;;46.70;20.80;;;;;;;-6.59;85.13;99141.45;102214;1316;1002582;-69
2021/12/28 11:04:33;;;;;;;41.20;17.10;;;;;;;-6.58;84.86;99139.52;102485;1316;71429;-70
2021/12/28 11:07:22;;;;;;;43.90;20.10;;;;;;;-6.60;84.93;99123.02;102574;1310;59826;-70
2021/12/28 11:10:09;;;;;;;36.10;16.20;;;;;;;-6.62;84.83;99118.56;101665;1317;1003868;-70
2021/12/28 11:12:57;;;;;;;54.80;21.80;;;;;;;-6.64;84.98;99114.11;101887;1311;1003241;-69
2021/12/28 11:15:46;;;;;;;38.60;16.30;;;;;;;-6.67;85.11;99109.20;103044;1311;66767;-69
2021/12/28 11:18:58;;;;;;;36.20;15.80;;;;;;;-6.77;85.59;99100.97;102345;1314;73349;-69
2021/12/28 11:21:57;;;;;;;52.50;21.00;;;;;;;-6.80;85.97;99099.30;102680;1310;59730;-70
2021/12/28 11:24:49;;;;;;;49.90;23.00;;;;;;;-6.80;85.98;99098.61;102544;1316;59637;-70
2021/12/28 11:27:37;;;;;;;55.70;21.50;;;;;;;-6.80;86.24;99101.02;102744;1310;72418;-70
2021/12/28 11:30:24;;;;;;;38.80;17.30;;;;;;;-6.78;86.40;99098.23;102551;1310;68181;-70
2021/12/28 11:33:12;;;;;;;45.30;19.10;;;;;;;-6.81;86.61;99101.23;102755;1310;72983;-69
2021/12/28 11:36:00;;;;;;;50.30;19.40;;;;;;;-6.83;86.67;99106.27;102918;1318;59703;-70
2021/12/28 11:38:48;;;;;;;50.20;22.40;;;;;;;-6.84;86.69;99098.52;102682;1313;59694;-70
2021/12/28 11:41:38;;;;;;;42.90;18.90;;;;;;;-6.83;87.11;99081.42;102257;1317;72051;-69
2021/12/28 11:44:29;;;;;;;50.40;20.30;;;;;;;-6.86;86.98;99073.91;102439;1311;65649;-69
2021/12/28 11:47:18;;;;;;;51.30;21.20;;;;;;;-6.87;87.43;99080.13;102427;1313;71487;-69
2021/12/28 11:50:09;;;;;;;51.00;19.50;;;;;;;-6.85;87.88;99072.66;100801;1312;1003343;-69
2021/12/28 11:52:56;;;;;;;43.80;20.20;;;;;;;-6.77;87.05;99080.41;102591;1310;60345;-71
2021/12/28 11:55:45;;;;;;;49.30;22.40;;;;;;;-6.79;87.47;99073.56;102799;1310;73408;-71
2021/12/28 11:59:00;;;;;;;45.40;17.70;;;;;;;-6.77;87.47;99062.65;101523;1314;1003142;-70
2021/12/28 12:02:05;;;;;;;52.60;21.10;;;;;;;-6.75;87.42;99061.57;102606;1313;70039;-70
2021/12/28 12:04:55;;;;;;;50.00;20.50;;;;;;;-6.71;87.57;99054.91;102533;1310;59869;-71
2021/12/28 12:07:44;;;;;;;46.90;17.90;;;;;;;-6.70;87.47;99057.66;101914;1310;1003918;-70
2021/12/28 12:10:35;;;;;;;45.60;18.20;;;;;;;-6.70;87.70;99050.07;102086;1314;1002923;-69
2021/12/28 12:13:27;;;;;;;54.30;25.00;;;;;;;-6.65;88.12;99042.17;102434;1313;66787;-70
2021/12/28 12:16:17;;;;;;;44.60;18.40;;;;;;;-6.64;87.80;99035.10;102765;1310;72717;-70
2021/12/28 12:19:04;;;;;;;51.20;18.40;;;;;;;-6.62;87.79;99034.35;102379;1310;59800;-69
2021/12/28 12:22:50;;;;;;;53.40;22.20;;;;;;;-6.68;88.35;99037.23;101691;1311;1003901;-69
2021/12/28 12:26:07;;;;;;;36.90;15.70;;;;;;;-6.72;88.48;99024.39;102195;1316;72321;-71
2021/12/28 12:28:55;;;;;;;43.20;18.70;;;;;;;-6.72;88.80;99021.30;101795;1317;68085;-71
2021/12/28 12:31:49;;;;;;;50.00;22.20;;;;;;;-6.71;88.70;99013.17;101966;1317;72986;-69
2021/12/28 12:34:37;;;;;;;53.40;19.70;;;;;;;-6.67;88.97;99007.36;102330;1317;61612;-70
2021/12/28 12:37:41;;;;;;;46.30;20.10;;;;;;;-6.64;89.32;99009.21;101191;1317;1002949;-70
2021/12/28 12:41:01;;;;;;;35.00;14.30;;;;;;;-6.62;88.97;99006.55;102193;1317;72214;-70
2021/12/28 12:43:54;;;;;;;46.50;19.80;;;;;;;-6.59;88.82;99002.52;102030;1317;67900;-70
2021/12/28 12:46:46;;;;;;;41.80;17.40;;;;;;;-6.60;89.22;99004.96;101871;1317;72866;-70
2021/12/28 12:49:34;;;;;;;51.40;21.50;;;;;;;-6.62;89.20;98998.96;101913;1317;59698;-70
2021/12/28 12:52:27;;;;;;;54.30;23.70;;;;;;;-6.64;89.27;98992.82;102320;1316;60694;-70
2021/12/28 12:55:33;;;;;;;46.10;18.70;;;;;;;-6.65;89.33;98986.80;102247;1317;73520;-70
2021/12/28 12:58:20;;;;;;;51.20;21.90;;;;;;;-6.62;89.28;98984.13;102607;1316;66884;-70
2021/12/28 13:01:27;;;;;;;47.20;19.20;;;;;;;-6.58;89.51;98985.41;101424;1313;1003540;-70
2021/12/28 13:04:26;;;;;;;57.70;25.40;;;;;;;-6.57;89.98;98987.11;102664;1310;59697;-70